sensor_id;sensor_type;location;lat;lon;timestamp;P1;durP1;ratioP1;P2;durP2;ratioP2
67585;SDS011;55785;47.946;20.540;2024-02-26T00:01:33;7.55;;;3.78;;
67585;SDS011;55785;47.946;20.540;2024-02-26T00:03:58;5.25;;;3.22;;
67585;SDS011;55785;47.946;20.540;2024-02-26T00:06:23;5.88;;;3.40;;
67585;SDS011;55785;47.946;20.540;2024-02-26T00:08:49;4.63;;;3.28;;
67585;SDS011;55785;47.946;20.540;2024-02-26T00:11:14;4.68;;;3.17;;
67585;SDS011;55785;47.946;20.540;2024-02-26T00:13:39;6.00;;;3.40;;
67585;SDS011;55785;47.946;20.540;2024-02-26T00:16:05;6.07;;;3.45;;
67585;SDS011;55785;47.946;20.540;2024-02-26T00:18:30;6.45;;;3.55;;
67585;SDS011;55785;47.946;20.540;2024-02-26T00:20:55;4.93;;;3.33;;
67585;SDS011;55785;47.946;20.540;2024-02-26T00:23:21;6.70;;;3.50;;
67585;SDS011;55785;47.946;20.540;2024-02-26T00:25:46;5.82;;;3.22;;
67585;SDS011;55785;47.946;20.540;2024-02-26T00:28:12;4.57;;;3.10;;
67585;SDS011;55785;47.946;20.540;2024-02-26T00:30:38;5.70;;;3.03;;
67585;SDS011;55785;47.946;20.540;2024-02-26T00:33:03;4.85;;;3.17;;
67585;SDS011;55785;47.946;20.540;2024-02-26T00:35:29;4.72;;;3.00;;
67585;SDS011;55785;47.946;20.540;2024-02-26T00:37:54;4.90;;;2.55;;
67585;SDS011;55785;47.946;20.540;2024-02-26T00:40:19;5.00;;;2.67;;
67585;SDS011;55785;47.946;20.540;2024-02-26T00:42:45;5.53;;;3.22;;
67585;SDS011;55785;47.946;20.540;2024-02-26T00:45:10;5.28;;;3.42;;
67585;SDS011;55785;47.946;20.540;2024-02-26T00:47:35;5.28;;;3.40;;
67585;SDS011;55785;47.946;20.540;2024-02-26T00:50:01;6.75;;;2.90;;
67585;SDS011;55785;47.946;20.540;2024-02-26T00:52:26;4.00;;;2.53;;
67585;SDS011;55785;47.946;20.540;2024-02-26T00:54:51;5.00;;;2.75;;
67585;SDS011;55785;47.946;20.540;2024-02-26T00:57:17;4.30;;;2.70;;
67585;SDS011;55785;47.946;20.540;2024-02-26T00:59:42;3.80;;;2.70;;
67585;SDS011;55785;47.946;20.540;2024-02-26T01:02:07;4.22;;;2.90;;
67585;SDS011;55785;47.946;20.540;2024-02-26T01:04:33;4.32;;;2.65;;
67585;SDS011;55785;47.946;20.540;2024-02-26T01:06:58;3.80;;;2.75;;
67585;SDS011;55785;47.946;20.540;2024-02-26T01:09:23;4.45;;;2.70;;
67585;SDS011;55785;47.946;20.540;2024-02-26T01:11:49;3.65;;;2.17;;
67585;SDS011;55785;47.946;20.540;2024-02-26T01:14:14;4.72;;;2.85;;
67585;SDS011;55785;47.946;20.540;2024-02-26T01:16:39;3.95;;;2.40;;
67585;SDS011;55785;47.946;20.540;2024-02-26T01:19:04;3.50;;;2.28;;
67585;SDS011;55785;47.946;20.540;2024-02-26T01:21:30;3.60;;;2.38;;
67585;SDS011;55785;47.946;20.540;2024-02-26T01:23:55;4.18;;;2.60;;
67585;SDS011;55785;47.946;20.540;2024-02-26T01:26:20;3.92;;;2.50;;
67585;SDS011;55785;47.946;20.540;2024-02-26T01:28:46;3.38;;;2.15;;
67585;SDS011;55785;47.946;20.540;2024-02-26T01:31:11;2.80;;;2.05;;
67585;SDS011;55785;47.946;20.540;2024-02-26T01:33:36;3.58;;;2.42;;
67585;SDS011;55785;47.946;20.540;2024-02-26T01:36:02;4.07;;;2.85;;
67585;SDS011;55785;47.946;20.540;2024-02-26T01:38:27;3.55;;;2.25;;
67585;SDS011;55785;47.946;20.540;2024-02-26T01:40:53;3.60;;;2.20;;
67585;SDS011;55785;47.946;20.540;2024-02-26T01:43:18;5.03;;;2.60;;
67585;SDS011;55785;47.946;20.540;2024-02-26T01:45:43;3.78;;;2.65;;
67585;SDS011;55785;47.946;20.540;2024-02-26T01:48:09;3.20;;;2.42;;
67585;SDS011;55785;47.946;20.540;2024-02-26T01:50:34;3.55;;;2.10;;
67585;SDS011;55785;47.946;20.540;2024-02-26T01:52:59;3.78;;;2.45;;
67585;SDS011;55785;47.946;20.540;2024-02-26T01:55:26;3.17;;;2.08;;
67585;SDS011;55785;47.946;20.540;2024-02-26T01:57:51;2.72;;;2.10;;
67585;SDS011;55785;47.946;20.540;2024-02-26T02:00:18;2.28;;;1.75;;
67585;SDS011;55785;47.946;20.540;2024-02-26T02:02:44;3.75;;;1.77;;
67585;SDS011;55785;47.946;20.540;2024-02-26T02:05:10;2.58;;;1.80;;
67585;SDS011;55785;47.946;20.540;2024-02-26T02:07:36;2.92;;;1.92;;
67585;SDS011;55785;47.946;20.540;2024-02-26T02:10:02;2.38;;;1.58;;
67585;SDS011;55785;47.946;20.540;2024-02-26T02:12:28;3.10;;;1.63;;
67585;SDS011;55785;47.946;20.540;2024-02-26T02:14:53;2.45;;;1.83;;
67585;SDS011;55785;47.946;20.540;2024-02-26T02:17:19;1.92;;;1.27;;
67585;SDS011;55785;47.946;20.540;2024-02-26T02:19:45;2.63;;;1.83;;
67585;SDS011;55785;47.946;20.540;2024-02-26T02:22:10;3.20;;;1.95;;
67585;SDS011;55785;47.946;20.540;2024-02-26T02:24:35;3.45;;;1.75;;
67585;SDS011;55785;47.946;20.540;2024-02-26T02:27:01;4.05;;;1.80;;
67585;SDS011;55785;47.946;20.540;2024-02-26T02:29:26;2.58;;;1.60;;
67585;SDS011;55785;47.946;20.540;2024-02-26T02:31:52;1.70;;;1.40;;
67585;SDS011;55785;47.946;20.540;2024-02-26T02:34:17;2.20;;;1.30;;
67585;SDS011;55785;47.946;20.540;2024-02-26T02:36:51;1.80;;;1.50;;
67585;SDS011;55785;47.946;20.540;2024-02-26T02:39:17;1.92;;;1.30;;
67585;SDS011;55785;47.946;20.540;2024-02-26T02:41:43;1.73;;;1.10;;
67585;SDS011;55785;47.946;20.540;2024-02-26T02:44:08;1.50;;;1.30;;
67585;SDS011;55785;47.946;20.540;2024-02-26T02:46:33;1.95;;;1.42;;
67585;SDS011;55785;47.946;20.540;2024-02-26T02:48:59;2.75;;;1.13;;
67585;SDS011;55785;47.946;20.540;2024-02-26T02:51:24;4.68;;;1.67;;
67585;SDS011;55785;47.946;20.540;2024-02-26T02:53:49;1.60;;;1.10;;
67585;SDS011;55785;47.946;20.540;2024-02-26T02:56:15;1.27;;;1.10;;
67585;SDS011;55785;47.946;20.540;2024-02-26T02:58:40;1.23;;;0.95;;
67585;SDS011;55785;47.946;20.540;2024-02-26T03:01:05;1.90;;;1.35;;
67585;SDS011;55785;47.946;20.540;2024-02-26T03:03:30;2.45;;;1.40;;
67585;SDS011;55785;47.946;20.540;2024-02-26T03:05:56;2.78;;;1.60;;
67585;SDS011;55785;47.946;20.540;2024-02-26T03:08:21;1.40;;;1.30;;
67585;SDS011;55785;47.946;20.540;2024-02-26T03:10:46;2.53;;;1.55;;
67585;SDS011;55785;47.946;20.540;2024-02-26T03:13:12;2.00;;;1.40;;
67585;SDS011;55785;47.946;20.540;2024-02-26T03:15:37;1.73;;;1.30;;
67585;SDS011;55785;47.946;20.540;2024-02-26T03:18:02;1.35;;;1.00;;
67585;SDS011;55785;47.946;20.540;2024-02-26T03:20:28;1.52;;;1.30;;
67585;SDS011;55785;47.946;20.540;2024-02-26T03:22:53;1.65;;;1.30;;
67585;SDS011;55785;47.946;20.540;2024-02-26T03:25:18;2.75;;;1.27;;
67585;SDS011;55785;47.946;20.540;2024-02-26T03:27:44;1.50;;;1.27;;
67585;SDS011;55785;47.946;20.540;2024-02-26T03:30:09;1.05;;;0.95;;
67585;SDS011;55785;47.946;20.540;2024-02-26T03:32:35;1.90;;;1.02;;
67585;SDS011;55785;47.946;20.540;2024-02-26T03:35:00;2.30;;;1.58;;
67585;SDS011;55785;47.946;20.540;2024-02-26T03:37:25;1.55;;;1.17;;
67585;SDS011;55785;47.946;20.540;2024-02-26T03:39:51;5.43;;;1.20;;
67585;SDS011;55785;47.946;20.540;2024-02-26T03:42:16;1.75;;;1.00;;
67585;SDS011;55785;47.946;20.540;2024-02-26T03:44:42;3.13;;;1.65;;
67585;SDS011;55785;47.946;20.540;2024-02-26T03:47:07;1.67;;;1.35;;
67585;SDS011;55785;47.946;20.540;2024-02-26T03:49:32;2.20;;;1.33;;
67585;SDS011;55785;47.946;20.540;2024-02-26T03:51:58;1.30;;;0.98;;
67585;SDS011;55785;47.946;20.540;2024-02-26T03:54:23;1.60;;;1.13;;
67585;SDS011;55785;47.946;20.540;2024-02-26T03:56:48;2.22;;;1.45;;
67585;SDS011;55785;47.946;20.540;2024-02-26T03:59:14;2.00;;;1.33;;
67585;SDS011;55785;47.946;20.540;2024-02-26T04:01:39;2.22;;;1.38;;
67585;SDS011;55785;47.946;20.540;2024-02-26T04:04:10;1.65;;;1.20;;
67585;SDS011;55785;47.946;20.540;2024-02-26T04:06:35;1.58;;;1.23;;
67585;SDS011;55785;47.946;20.540;2024-02-26T04:09:00;2.50;;;1.58;;
67585;SDS011;55785;47.946;20.540;2024-02-26T04:11:26;1.67;;;1.25;;
67585;SDS011;55785;47.946;20.540;2024-02-26T04:13:51;2.08;;;1.33;;
67585;SDS011;55785;47.946;20.540;2024-02-26T04:16:16;2.47;;;1.00;;
67585;SDS011;55785;47.946;20.540;2024-02-26T04:18:42;2.15;;;1.30;;
67585;SDS011;55785;47.946;20.540;2024-02-26T04:21:07;2.17;;;1.40;;
67585;SDS011;55785;47.946;20.540;2024-02-26T04:23:33;2.15;;;1.30;;
67585;SDS011;55785;47.946;20.540;2024-02-26T04:25:58;6.22;;;1.38;;
67585;SDS011;55785;47.946;20.540;2024-02-26T04:28:23;1.98;;;1.30;;
67585;SDS011;55785;47.946;20.540;2024-02-26T04:30:49;3.15;;;1.63;;
67585;SDS011;55785;47.946;20.540;2024-02-26T04:33:14;2.75;;;1.50;;
67585;SDS011;55785;47.946;20.540;2024-02-26T04:35:39;1.92;;;1.27;;
67585;SDS011;55785;47.946;20.540;2024-02-26T04:38:05;1.77;;;1.20;;
67585;SDS011;55785;47.946;20.540;2024-02-26T04:40:30;1.88;;;1.40;;
67585;SDS011;55785;47.946;20.540;2024-02-26T04:42:55;2.58;;;1.30;;
67585;SDS011;55785;47.946;20.540;2024-02-26T04:45:21;1.98;;;1.40;;
67585;SDS011;55785;47.946;20.540;2024-02-26T04:47:46;3.88;;;1.75;;
67585;SDS011;55785;47.946;20.540;2024-02-26T04:50:11;2.40;;;1.50;;
67585;SDS011;55785;47.946;20.540;2024-02-26T04:52:37;2.08;;;1.50;;
67585;SDS011;55785;47.946;20.540;2024-02-26T04:55:02;2.28;;;1.40;;
67585;SDS011;55785;47.946;20.540;2024-02-26T04:57:28;2.15;;;1.50;;
67585;SDS011;55785;47.946;20.540;2024-02-26T04:59:53;2.47;;;1.33;;
67585;SDS011;55785;47.946;20.540;2024-02-26T05:02:18;3.00;;;1.70;;
67585;SDS011;55785;47.946;20.540;2024-02-26T05:04:44;3.53;;;2.15;;
67585;SDS011;55785;47.946;20.540;2024-02-26T05:07:09;3.13;;;1.90;;
67585;SDS011;55785;47.946;20.540;2024-02-26T05:09:34;5.15;;;2.50;;
67585;SDS011;55785;47.946;20.540;2024-02-26T05:12:00;3.80;;;2.10;;
67585;SDS011;55785;47.946;20.540;2024-02-26T05:14:25;3.75;;;2.33;;
67585;SDS011;55785;47.946;20.540;2024-02-26T05:16:51;6.18;;;2.50;;
67585;SDS011;55785;47.946;20.540;2024-02-26T05:19:16;5.43;;;2.20;;
67585;SDS011;55785;47.946;20.540;2024-02-26T05:21:41;5.60;;;2.03;;
67585;SDS011;55785;47.946;20.540;2024-02-26T05:24:07;3.75;;;2.47;;
67585;SDS011;55785;47.946;20.540;2024-02-26T05:26:32;4.60;;;2.55;;
67585;SDS011;55785;47.946;20.540;2024-02-26T05:28:58;4.82;;;2.78;;
67585;SDS011;55785;47.946;20.540;2024-02-26T05:31:23;4.03;;;2.60;;
67585;SDS011;55785;47.946;20.540;2024-02-26T05:33:48;10.65;;;3.17;;
67585;SDS011;55785;47.946;20.540;2024-02-26T05:36:17;8.70;;;2.75;;
67585;SDS011;55785;47.946;20.540;2024-02-26T05:38:43;6.68;;;2.92;;
67585;SDS011;55785;47.946;20.540;2024-02-26T05:41:09;4.88;;;2.97;;
67585;SDS011;55785;47.946;20.540;2024-02-26T05:43:34;7.20;;;3.20;;
67585;SDS011;55785;47.946;20.540;2024-02-26T05:45:59;5.38;;;3.15;;
67585;SDS011;55785;47.946;20.540;2024-02-26T05:48:25;5.32;;;2.95;;
67585;SDS011;55785;47.946;20.540;2024-02-26T05:50:50;4.53;;;2.80;;
67585;SDS011;55785;47.946;20.540;2024-02-26T05:53:17;5.25;;;3.22;;
67585;SDS011;55785;47.946;20.540;2024-02-26T05:55:42;6.40;;;3.47;;
67585;SDS011;55785;47.946;20.540;2024-02-26T05:58:07;7.72;;;3.78;;
67585;SDS011;55785;47.946;20.540;2024-02-26T06:00:33;6.90;;;3.55;;
67585;SDS011;55785;47.946;20.540;2024-02-26T06:02:58;6.82;;;3.65;;
67585;SDS011;55785;47.946;20.540;2024-02-26T06:05:23;7.95;;;3.55;;
67585;SDS011;55785;47.946;20.540;2024-02-26T06:07:49;7.68;;;3.80;;
67585;SDS011;55785;47.946;20.540;2024-02-26T06:10:14;5.78;;;3.35;;
67585;SDS011;55785;47.946;20.540;2024-02-26T06:12:39;6.82;;;4.03;;
67585;SDS011;55785;47.946;20.540;2024-02-26T06:15:05;5.80;;;3.42;;
67585;SDS011;55785;47.946;20.540;2024-02-26T06:17:31;6.50;;;3.85;;
67585;SDS011;55785;47.946;20.540;2024-02-26T06:19:56;6.47;;;3.88;;
67585;SDS011;55785;47.946;20.540;2024-02-26T06:22:22;6.80;;;3.58;;
67585;SDS011;55785;47.946;20.540;2024-02-26T06:24:47;7.95;;;4.20;;
67585;SDS011;55785;47.946;20.540;2024-02-26T06:27:12;8.07;;;4.05;;
67585;SDS011;55785;47.946;20.540;2024-02-26T06:29:38;11.10;;;4.15;;
67585;SDS011;55785;47.946;20.540;2024-02-26T06:32:03;7.00;;;4.40;;
67585;SDS011;55785;47.946;20.540;2024-02-26T06:34:29;9.80;;;4.43;;
67585;SDS011;55785;47.946;20.540;2024-02-26T06:36:54;7.63;;;4.75;;
67585;SDS011;55785;47.946;20.540;2024-02-26T06:39:19;7.78;;;4.40;;
67585;SDS011;55785;47.946;20.540;2024-02-26T06:41:45;6.53;;;4.38;;
67585;SDS011;55785;47.946;20.540;2024-02-26T06:44:10;7.53;;;4.45;;
67585;SDS011;55785;47.946;20.540;2024-02-26T06:46:35;6.75;;;3.92;;
67585;SDS011;55785;47.946;20.540;2024-02-26T06:49:01;10.30;;;5.22;;
67585;SDS011;55785;47.946;20.540;2024-02-26T06:51:26;7.20;;;4.32;;
67585;SDS011;55785;47.946;20.540;2024-02-26T06:53:51;9.82;;;4.70;;
67585;SDS011;55785;47.946;20.540;2024-02-26T06:56:17;9.98;;;4.38;;
67585;SDS011;55785;47.946;20.540;2024-02-26T06:58:42;7.75;;;4.63;;
67585;SDS011;55785;47.946;20.540;2024-02-26T07:01:07;8.43;;;4.22;;
67585;SDS011;55785;47.946;20.540;2024-02-26T07:03:33;6.65;;;3.95;;
67585;SDS011;55785;47.946;20.540;2024-02-26T07:05:58;9.23;;;4.65;;
67585;SDS011;55785;47.946;20.540;2024-02-26T07:08:24;10.52;;;4.72;;
67585;SDS011;55785;47.946;20.540;2024-02-26T07:10:49;6.15;;;4.40;;
67585;SDS011;55785;47.946;20.540;2024-02-26T07:13:14;10.25;;;4.55;;
67585;SDS011;55785;47.946;20.540;2024-02-26T07:15:40;8.18;;;4.78;;
67585;SDS011;55785;47.946;20.540;2024-02-26T07:18:05;8.20;;;5.45;;
67585;SDS011;55785;47.946;20.540;2024-02-26T07:20:31;6.97;;;4.60;;
67585;SDS011;55785;47.946;20.540;2024-02-26T07:22:56;9.18;;;5.18;;
67585;SDS011;55785;47.946;20.540;2024-02-26T07:25:22;7.80;;;4.80;;
67585;SDS011;55785;47.946;20.540;2024-02-26T07:27:48;7.78;;;4.18;;
67585;SDS011;55785;47.946;20.540;2024-02-26T07:30:13;7.50;;;4.97;;
67585;SDS011;55785;47.946;20.540;2024-02-26T07:32:38;13.93;;;4.50;;
67585;SDS011;55785;47.946;20.540;2024-02-26T07:35:04;7.80;;;4.68;;
67585;SDS011;55785;47.946;20.540;2024-02-26T07:37:30;8.10;;;4.70;;
67585;SDS011;55785;47.946;20.540;2024-02-26T07:39:55;8.30;;;4.70;;
67585;SDS011;55785;47.946;20.540;2024-02-26T07:42:20;9.65;;;4.25;;
67585;SDS011;55785;47.946;20.540;2024-02-26T07:44:46;8.80;;;4.50;;
67585;SDS011;55785;47.946;20.540;2024-02-26T07:47:11;8.07;;;4.53;;
67585;SDS011;55785;47.946;20.540;2024-02-26T07:49:36;8.80;;;4.72;;
67585;SDS011;55785;47.946;20.540;2024-02-26T07:52:02;9.32;;;4.50;;
67585;SDS011;55785;47.946;20.540;2024-02-26T07:54:27;8.30;;;4.50;;
67585;SDS011;55785;47.946;20.540;2024-02-26T07:56:52;8.63;;;4.82;;
67585;SDS011;55785;47.946;20.540;2024-02-26T07:59:18;7.65;;;4.32;;
67585;SDS011;55785;47.946;20.540;2024-02-26T08:01:43;7.15;;;4.72;;
67585;SDS011;55785;47.946;20.540;2024-02-26T08:04:08;6.80;;;4.25;;
67585;SDS011;55785;47.946;20.540;2024-02-26T08:06:34;6.53;;;3.88;;
67585;SDS011;55785;47.946;20.540;2024-02-26T08:08:59;5.72;;;3.70;;
67585;SDS011;55785;47.946;20.540;2024-02-26T08:11:24;6.97;;;3.85;;
67585;SDS011;55785;47.946;20.540;2024-02-26T08:13:50;9.98;;;4.43;;
67585;SDS011;55785;47.946;20.540;2024-02-26T08:16:15;8.75;;;4.95;;
67585;SDS011;55785;47.946;20.540;2024-02-26T08:18:40;10.38;;;4.13;;
67585;SDS011;55785;47.946;20.540;2024-02-26T08:21:06;9.55;;;4.43;;
67585;SDS011;55785;47.946;20.540;2024-02-26T08:23:31;10.82;;;4.65;;
67585;SDS011;55785;47.946;20.540;2024-02-26T08:25:56;6.95;;;4.00;;
67585;SDS011;55785;47.946;20.540;2024-02-26T08:28:22;10.10;;;4.90;;
67585;SDS011;55785;47.946;20.540;2024-02-26T08:30:47;8.00;;;4.70;;
67585;SDS011;55785;47.946;20.540;2024-02-26T08:33:13;6.85;;;4.07;;
67585;SDS011;55785;47.946;20.540;2024-02-26T08:35:38;8.88;;;4.70;;
67585;SDS011;55785;47.946;20.540;2024-02-26T08:38:03;8.25;;;4.38;;
67585;SDS011;55785;47.946;20.540;2024-02-26T08:40:29;11.68;;;4.80;;
67585;SDS011;55785;47.946;20.540;2024-02-26T08:42:54;7.15;;;3.85;;
67585;SDS011;55785;47.946;20.540;2024-02-26T08:45:20;5.75;;;3.47;;
67585;SDS011;55785;47.946;20.540;2024-02-26T08:47:45;7.22;;;3.83;;
67585;SDS011;55785;47.946;20.540;2024-02-26T08:50:10;5.03;;;3.38;;
67585;SDS011;55785;47.946;20.540;2024-02-26T08:52:36;6.55;;;3.90;;
67585;SDS011;55785;47.946;20.540;2024-02-26T08:55:01;8.63;;;3.20;;
67585;SDS011;55785;47.946;20.540;2024-02-26T08:57:27;6.82;;;3.50;;
67585;SDS011;55785;47.946;20.540;2024-02-26T08:59:52;7.72;;;3.40;;
67585;SDS011;55785;47.946;20.540;2024-02-26T09:02:17;6.47;;;2.72;;
67585;SDS011;55785;47.946;20.540;2024-02-26T09:04:43;5.20;;;2.90;;
67585;SDS011;55785;47.946;20.540;2024-02-26T09:07:08;5.47;;;2.97;;
67585;SDS011;55785;47.946;20.540;2024-02-26T09:09:33;8.35;;;2.97;;
67585;SDS011;55785;47.946;20.540;2024-02-26T09:11:59;7.63;;;2.85;;
67585;SDS011;55785;47.946;20.540;2024-02-26T09:14:24;4.43;;;2.90;;
67585;SDS011;55785;47.946;20.540;2024-02-26T09:16:49;5.18;;;2.78;;
67585;SDS011;55785;47.946;20.540;2024-02-26T09:19:15;6.13;;;3.03;;
67585;SDS011;55785;47.946;20.540;2024-02-26T09:21:43;7.43;;;3.33;;
67585;SDS011;55785;47.946;20.540;2024-02-26T09:24:10;5.63;;;2.97;;
67585;SDS011;55785;47.946;20.540;2024-02-26T09:26:36;7.97;;;3.35;;
67585;SDS011;55785;47.946;20.540;2024-02-26T09:29:02;6.47;;;3.20;;
67585;SDS011;55785;47.946;20.540;2024-02-26T09:31:27;7.32;;;2.92;;
67585;SDS011;55785;47.946;20.540;2024-02-26T09:33:52;6.07;;;3.45;;
67585;SDS011;55785;47.946;20.540;2024-02-26T09:36:18;5.57;;;2.72;;
67585;SDS011;55785;47.946;20.540;2024-02-26T09:38:43;4.57;;;2.80;;
67585;SDS011;55785;47.946;20.540;2024-02-26T09:41:11;4.95;;;3.17;;
67585;SDS011;55785;47.946;20.540;2024-02-26T09:43:39;8.15;;;4.25;;
67585;SDS011;55785;47.946;20.540;2024-02-26T09:46:08;7.18;;;3.22;;
67585;SDS011;55785;47.946;20.540;2024-02-26T09:48:34;9.00;;;3.45;;
67585;SDS011;55785;47.946;20.540;2024-02-26T09:51:02;9.02;;;4.07;;
67585;SDS011;55785;47.946;20.540;2024-02-26T09:53:28;6.53;;;3.88;;
67585;SDS011;55785;47.946;20.540;2024-02-26T09:55:54;5.45;;;3.47;;
67585;SDS011;55785;47.946;20.540;2024-02-26T09:58:20;6.05;;;3.97;;
67585;SDS011;55785;47.946;20.540;2024-02-26T10:00:50;8.57;;;3.78;;
67585;SDS011;55785;47.946;20.540;2024-02-26T10:03:18;8.18;;;3.78;;
67585;SDS011;55785;47.946;20.540;2024-02-26T10:05:46;10.38;;;4.05;;
67585;SDS011;55785;47.946;20.540;2024-02-26T10:08:14;6.80;;;3.72;;
67585;SDS011;55785;47.946;20.540;2024-02-26T10:10:40;7.03;;;3.83;;
67585;SDS011;55785;47.946;20.540;2024-02-26T10:13:06;7.15;;;3.60;;
67585;SDS011;55785;47.946;20.540;2024-02-26T10:15:33;6.25;;;3.90;;
67585;SDS011;55785;47.946;20.540;2024-02-26T10:17:58;6.68;;;3.80;;
67585;SDS011;55785;47.946;20.540;2024-02-26T10:20:23;5.57;;;3.90;;
67585;SDS011;55785;47.946;20.540;2024-02-26T10:22:49;5.03;;;3.38;;
67585;SDS011;55785;47.946;20.540;2024-02-26T10:25:14;7.47;;;4.07;;
67585;SDS011;55785;47.946;20.540;2024-02-26T10:27:40;5.03;;;3.33;;
67585;SDS011;55785;47.946;20.540;2024-02-26T10:30:16;7.65;;;4.00;;
67585;SDS011;55785;47.946;20.540;2024-02-26T10:32:42;6.68;;;3.70;;
67585;SDS011;55785;47.946;20.540;2024-02-26T10:35:08;6.70;;;4.20;;
67585;SDS011;55785;47.946;20.540;2024-02-26T10:37:34;5.60;;;3.58;;
67585;SDS011;55785;47.946;20.540;2024-02-26T10:39:59;15.55;;;4.28;;
67585;SDS011;55785;47.946;20.540;2024-02-26T10:42:25;6.95;;;3.67;;
67585;SDS011;55785;47.946;20.540;2024-02-26T10:44:51;6.45;;;3.58;;
67585;SDS011;55785;47.946;20.540;2024-02-26T10:47:16;6.40;;;3.90;;
67585;SDS011;55785;47.946;20.540;2024-02-26T10:49:44;8.13;;;3.83;;
67585;SDS011;55785;47.946;20.540;2024-02-26T10:52:13;6.30;;;3.42;;
67585;SDS011;55785;47.946;20.540;2024-02-26T10:54:40;7.22;;;3.10;;
67585;SDS011;55785;47.946;20.540;2024-02-26T10:57:06;5.10;;;3.05;;
67585;SDS011;55785;47.946;20.540;2024-02-26T10:59:34;6.22;;;3.53;;
67585;SDS011;55785;47.946;20.540;2024-02-26T11:02:01;7.43;;;3.38;;
67585;SDS011;55785;47.946;20.540;2024-02-26T11:04:27;5.50;;;3.45;;
67585;SDS011;55785;47.946;20.540;2024-02-26T11:06:54;8.30;;;3.72;;
67585;SDS011;55785;47.946;20.540;2024-02-26T11:09:21;7.32;;;3.35;;
67585;SDS011;55785;47.946;20.540;2024-02-26T11:11:47;5.88;;;3.63;;
67585;SDS011;55785;47.946;20.540;2024-02-26T11:14:13;5.85;;;3.92;;
67585;SDS011;55785;47.946;20.540;2024-02-26T11:16:39;5.00;;;3.03;;
67585;SDS011;55785;47.946;20.540;2024-02-26T11:19:05;5.20;;;3.38;;
67585;SDS011;55785;47.946;20.540;2024-02-26T11:21:31;6.43;;;3.25;;
67585;SDS011;55785;47.946;20.540;2024-02-26T11:23:57;5.30;;;3.40;;
67585;SDS011;55785;47.946;20.540;2024-02-26T11:26:22;8.57;;;3.65;;
67585;SDS011;55785;47.946;20.540;2024-02-26T11:28:49;8.27;;;3.70;;
67585;SDS011;55785;47.946;20.540;2024-02-26T11:31:17;6.38;;;4.10;;
67585;SDS011;55785;47.946;20.540;2024-02-26T11:33:42;7.75;;;4.93;;
67585;SDS011;55785;47.946;20.540;2024-02-26T11:36:11;6.40;;;3.83;;
67585;SDS011;55785;47.946;20.540;2024-02-26T11:38:37;9.90;;;4.10;;
67585;SDS011;55785;47.946;20.540;2024-02-26T11:41:03;8.38;;;4.50;;
67585;SDS011;55785;47.946;20.540;2024-02-26T11:46:26;7.72;;;4.82;;
67585;SDS011;55785;47.946;20.540;2024-02-26T11:48:58;9.93;;;4.80;;
67585;SDS011;55785;47.946;20.540;2024-02-26T11:51:25;6.93;;;4.38;;
67585;SDS011;55785;47.946;20.540;2024-02-26T11:53:51;9.25;;;4.10;;
67585;SDS011;55785;47.946;20.540;2024-02-26T11:58:41;7.60;;;4.30;;
67585;SDS011;55785;47.946;20.540;2024-02-26T12:01:53;9.23;;;4.22;;
67585;SDS011;55785;47.946;20.540;2024-02-26T12:04:18;6.32;;;4.00;;
67585;SDS011;55785;47.946;20.540;2024-02-26T12:06:48;7.43;;;4.35;;
67585;SDS011;55785;47.946;20.540;2024-02-26T12:11:56;9.90;;;4.75;;
67585;SDS011;55785;47.946;20.540;2024-02-26T12:14:24;8.40;;;4.63;;
67585;SDS011;55785;47.946;20.540;2024-02-26T12:16:50;7.18;;;4.38;;
67585;SDS011;55785;47.946;20.540;2024-02-26T12:19:17;8.63;;;5.35;;
67585;SDS011;55785;47.946;20.540;2024-02-26T12:21:43;8.50;;;4.35;;
67585;SDS011;55785;47.946;20.540;2024-02-26T12:24:15;10.55;;;4.80;;
67585;SDS011;55785;47.946;20.540;2024-02-26T12:26:40;7.82;;;4.78;;
67585;SDS011;55785;47.946;20.540;2024-02-26T12:29:06;9.07;;;4.50;;
67585;SDS011;55785;47.946;20.540;2024-02-26T12:31:32;7.97;;;4.55;;
67585;SDS011;55785;47.946;20.540;2024-02-26T12:33:58;9.35;;;4.20;;
67585;SDS011;55785;47.946;20.540;2024-02-26T12:36:27;7.38;;;4.32;;
67585;SDS011;55785;47.946;20.540;2024-02-26T12:38:53;7.22;;;4.07;;
67585;SDS011;55785;47.946;20.540;2024-02-26T12:41:18;6.65;;;4.00;;
67585;SDS011;55785;47.946;20.540;2024-02-26T12:43:44;8.10;;;4.03;;
67585;SDS011;55785;47.946;20.540;2024-02-26T12:46:11;6.90;;;3.92;;
67585;SDS011;55785;47.946;20.540;2024-02-26T12:48:36;7.45;;;4.10;;
67585;SDS011;55785;47.946;20.540;2024-02-26T12:51:01;6.72;;;4.25;;
67585;SDS011;55785;47.946;20.540;2024-02-26T12:53:27;9.13;;;4.05;;
67585;SDS011;55785;47.946;20.540;2024-02-26T12:55:55;10.63;;;3.92;;
67585;SDS011;55785;47.946;20.540;2024-02-26T12:58:21;8.10;;;3.83;;
67585;SDS011;55785;47.946;20.540;2024-02-26T13:00:47;6.70;;;4.40;;
67585;SDS011;55785;47.946;20.540;2024-02-26T13:03:12;7.65;;;3.67;;
67585;SDS011;55785;47.946;20.540;2024-02-26T13:05:38;7.10;;;3.95;;
67585;SDS011;55785;47.946;20.540;2024-02-26T13:08:04;8.15;;;4.22;;
67585;SDS011;55785;47.946;20.540;2024-02-26T13:10:31;10.82;;;3.65;;
67585;SDS011;55785;47.946;20.540;2024-02-26T13:12:56;7.07;;;3.75;;
67585;SDS011;55785;47.946;20.540;2024-02-26T13:15:22;6.22;;;3.53;;
67585;SDS011;55785;47.946;20.540;2024-02-26T13:17:48;6.80;;;3.50;;
67585;SDS011;55785;47.946;20.540;2024-02-26T13:20:24;10.13;;;4.00;;
67585;SDS011;55785;47.946;20.540;2024-02-26T13:22:59;11.25;;;4.00;;
67585;SDS011;55785;47.946;20.540;2024-02-26T13:25:56;7.07;;;3.92;;
67585;SDS011;55785;47.946;20.540;2024-02-26T13:28:21;6.57;;;3.88;;
67585;SDS011;55785;47.946;20.540;2024-02-26T13:30:56;12.32;;;4.10;;
67585;SDS011;55785;47.946;20.540;2024-02-26T13:33:22;9.57;;;3.65;;
67585;SDS011;55785;47.946;20.540;2024-02-26T13:35:49;7.05;;;3.97;;
67585;SDS011;55785;47.946;20.540;2024-02-26T13:38:14;6.85;;;3.75;;
67585;SDS011;55785;47.946;20.540;2024-02-26T13:40:40;6.28;;;3.88;;
67585;SDS011;55785;47.946;20.540;2024-02-26T13:43:05;8.10;;;4.10;;
67585;SDS011;55785;47.946;20.540;2024-02-26T13:45:33;6.68;;;3.78;;
67585;SDS011;55785;47.946;20.540;2024-02-26T13:48:01;6.30;;;4.00;;
67585;SDS011;55785;47.946;20.540;2024-02-26T13:50:27;6.93;;;4.10;;
67585;SDS011;55785;47.946;20.540;2024-02-26T13:52:53;7.07;;;4.00;;
67585;SDS011;55785;47.946;20.540;2024-02-26T13:55:18;5.60;;;3.35;;
67585;SDS011;55785;47.946;20.540;2024-02-26T13:57:44;6.28;;;3.95;;
67585;SDS011;55785;47.946;20.540;2024-02-26T14:00:09;8.60;;;4.70;;
67585;SDS011;55785;47.946;20.540;2024-02-26T14:02:35;6.68;;;3.78;;
67585;SDS011;55785;47.946;20.540;2024-02-26T14:05:00;8.32;;;4.25;;
67585;SDS011;55785;47.946;20.540;2024-02-26T14:07:25;8.20;;;4.18;;
67585;SDS011;55785;47.946;20.540;2024-02-26T14:09:51;8.38;;;4.07;;
67585;SDS011;55785;47.946;20.540;2024-02-26T14:12:16;9.98;;;4.22;;
67585;SDS011;55785;47.946;20.540;2024-02-26T14:14:41;7.88;;;4.28;;
67585;SDS011;55785;47.946;20.540;2024-02-26T14:17:07;6.15;;;3.78;;
67585;SDS011;55785;47.946;20.540;2024-02-26T14:19:32;8.27;;;4.82;;
67585;SDS011;55785;47.946;20.540;2024-02-26T14:21:57;7.70;;;4.35;;
67585;SDS011;55785;47.946;20.540;2024-02-26T14:24:23;8.05;;;4.25;;
67585;SDS011;55785;47.946;20.540;2024-02-26T14:26:48;6.93;;;4.15;;
67585;SDS011;55785;47.946;20.540;2024-02-26T14:29:13;5.72;;;3.85;;
67585;SDS011;55785;47.946;20.540;2024-02-26T14:31:39;7.05;;;4.15;;
67585;SDS011;55785;47.946;20.540;2024-02-26T14:34:04;7.72;;;4.25;;